Time;durP1;ratioP1;P1;durP2;ratioP2;P2;SDS_P1;SDS_P2;PMS_P1;PMS_P2;Temp;Humidity;BMP_temperature;BMP_pressure;BME280_temperature;BME280_humidity;BME280_pressure;Samples;Min_cycle;Max_cycle;Signal;HPM_P1;HPM_P2
2023/10/09 00:03:04;;;;;;;6.20;2.15;;;13.40;99.90;;;;;;5080755;28;20139;-33
2023/10/09 00:08:32;;;;;;;5.82;2.80;;;13.40;99.90;;;;;;5083864;28;20168;-35
2023/10/09 00:11:13;;;;;;;8.50;3.17;;;13.40;99.90;;;;;;5085356;28;20493;-33
2023/10/09 00:13:52;;;;;;;8.50;2.85;;;13.40;99.90;;;;;;5080392;28;20083;-33
2023/10/09 00:16:46;;;;;;;5.65;2.33;;;13.40;99.90;;;;;;5083489;28;20569;-33
2023/10/09 00:19:30;;;;;;;6.38;3.25;;;13.40;99.90;;;;;;5079205;28;20560;-33
2023/10/09 00:21:58;;;;;;;8.70;2.95;;;13.50;99.90;;;;;;5080962;28;20448;-33
2023/10/09 00:24:24;;;;;;;6.45;3.10;;;13.50;99.90;;;;;;5084145;28;20442;-33
2023/10/09 00:27:11;;;;;;;8.38;3.35;;;13.50;99.90;;;;;;5085033;28;20477;-32
2023/10/09 00:29:44;;;;;;;7.20;3.55;;;13.50;99.90;;;;;;5080224;28;20063;-32
2023/10/09 00:32:26;;;;;;;;;;;13.50;99.90;;;;;;5080977;28;20044;-32
2023/10/09 00:34:58;;;;;;;9.23;4.97;;;13.50;99.90;;;;;;5077101;28;20309;-32
2023/10/09 00:37:26;;;;;;;14.00;5.30;;;13.50;99.90;;;;;;5078943;28;20494;-32
2023/10/09 00:39:56;;;;;;;14.00;5.15;;;13.50;99.90;;;;;;5076581;28;20062;-32
2023/10/09 00:42:31;;;;;;;9.57;4.47;;;13.50;99.90;;;;;;5073194;28;20152;-33
2023/10/09 00:45:03;;;;;;;11.60;5.50;;;13.50;99.90;;;;;;5073380;28;20082;-32
2023/10/09 00:47:34;;;;;;;13.60;6.20;;;13.50;99.90;;;;;;5079344;28;20387;-32
2023/10/09 00:50:08;;;;;;;14.30;5.80;;;13.50;99.90;;;;;;5078859;28;20058;-32
2023/10/09 00:52:40;;;;;;;17.77;7.13;;;13.60;99.90;;;;;;5076426;28;20051;-33
2023/10/09 00:55:13;;;;;;;13.85;5.90;;;13.50;99.90;;;;;;5076693;28;20044;-33
2023/10/09 00:57:50;;;;;;;14.98;6.68;;;13.50;99.90;;;;;;5080272;28;20101;-33
2023/10/09 01:11:18;;;;;;;14.65;8.05;;;13.50;99.90;;;;;;5082993;28;20067;-33
2023/10/09 01:16:16;;;;;;;17.38;7.90;;;13.50;99.90;;;;;;5082707;28;20059;-33
2023/10/09 01:18:49;;;;;;;13.82;7.60;;;13.60;99.90;;;;;;5082527;28;20135;-33
2023/10/09 01:21:16;;;;;;;14.80;7.05;;;13.50;99.90;;;;;;5084809;28;20502;-33
2023/10/09 01:26:45;;;;;;;14.77;7.68;;;13.60;99.90;;;;;;5068731;28;20483;-37
2023/10/09 01:29:16;;;;;;;17.17;7.97;;;13.60;99.90;;;;;;5082016;28;20105;-33
2023/10/09 01:31:55;;;;;;;15.50;8.07;;;13.60;99.90;;;;;;5082229;28;20535;-33
2023/10/09 01:34:49;;;;;;;20.27;8.75;;;13.60;99.90;;;;;;5082787;28;20137;-33
2023/10/09 01:37:25;;;;;;;19.05;9.05;;;13.60;99.90;;;;;;5089063;28;20592;-33
2023/10/09 01:39:58;;;;;;;15.77;8.85;;;13.60;99.90;;;;;;5064372;28;20589;-33
2023/10/09 01:42:34;;;;;;;19.13;8.70;;;13.60;99.90;;;;;;5083282;28;20456;-33
2023/10/09 01:45:26;;;;;;;21.20;10.15;;;13.60;99.90;;;;;;5081797;28;20063;-33
2023/10/09 01:47:53;;;;;;;18.67;9.77;;;13.70;99.90;;;;;;5078162;28;20059;-33
2023/10/09 01:50:30;;;;;;;23.50;10.05;;;13.70;99.90;;;;;;5081695;28;20076;-33
2023/10/09 01:53:00;;;;;;;19.60;9.50;;;13.70;99.90;;;;;;5078955;28;20055;-33
2023/10/09 01:55:29;;;;;;;19.40;9.82;;;13.70;99.90;;;;;;5077998;28;20578;-33
2023/10/09 01:58:02;;;;;;;19.58;9.65;;;13.70;99.90;;;;;;5080882;28;20497;-33
2023/10/09 02:00:29;;;;;;;20.52;9.95;;;13.70;99.90;;;;;;5080947;28;20059;-33
2023/10/09 02:02:54;;;;;;;24.92;11.00;;;13.70;99.90;;;;;;5080180;28;20072;-33
2023/10/09 02:07:51;;;;;;;19.10;8.98;;;13.80;99.90;;;;;;5083795;28;20051;-33
2023/10/09 02:10:25;;;;;;;20.08;10.18;;;13.80;99.90;;;;;;5082439;28;20051;-33
2023/10/09 02:12:59;;;;;;;22.25;10.00;;;13.80;99.90;;;;;;5078154;28;20044;-33
2023/10/09 02:18:26;;;;;;;27.40;13.55;;;13.80;99.90;;;;;;5075888;28;20091;-33
2023/10/09 02:21:13;;;;;;;25.17;13.17;;;13.90;99.90;;;;;;5083227;28;20055;-33
2023/10/09 02:23:40;;;;;;;26.42;13.25;;;13.90;99.90;;;;;;5084986;28;20806;-33
2023/10/09 02:26:25;;;;;;;22.70;11.18;;;13.90;99.90;;;;;;5081736;28;20052;-33
2023/10/09 02:29:04;;;;;;;28.48;12.30;;;13.90;99.90;;;;;;5081477;28;20132;-33
2023/10/09 02:31:40;;;;;;;24.60;12.20;;;13.90;99.90;;;;;;5083113;28;20135;-32
2023/10/09 02:34:07;;;;;;;27.20;14.32;;;13.90;99.90;;;;;;5081346;28;20077;-32
2023/10/09 02:36:38;;;;;;;32.13;14.80;;;14.00;99.90;;;;;;5072760;28;20393;-32
2023/10/09 02:39:05;;;;;;;28.35;13.60;;;14.00;99.90;;;;;;5081822;28;20080;-32
2023/10/09 02:41:34;;;;;;;28.98;13.20;;;14.00;99.90;;;;;;5084038;28;20431;-32
2023/10/09 02:44:10;;;;;;;34.63;15.43;;;14.00;99.90;;;;;;5086129;28;20062;-33
2023/10/09 02:46:35;;;;;;;23.58;12.23;;;14.00;99.90;;;;;;5081080;28;20058;-32
2023/10/09 02:49:06;;;;;;;23.55;12.07;;;14.00;99.90;;;;;;5079301;28;20056;-33
2023/10/09 02:51:41;;;;;;;28.00;14.90;;;14.00;99.90;;;;;;5083656;28;20057;-32
2023/10/09 02:57:06;;;;;;;31.48;15.98;;;14.10;99.90;;;;;;5081334;28;20071;-32
2023/10/09 02:59:32;;;;;;;29.30;15.20;;;14.20;99.90;;;;;;5090780;28;20485;-32
2023/10/09 03:01:59;;;;;;;36.53;15.98;;;14.20;99.90;;;;;;5082888;28;20439;-33
2023/10/09 03:04:29;;;;;;;43.00;17.35;;;14.20;99.90;;;;;;5076744;28;20116;-33
2023/10/09 03:06:57;;;;;;;29.98;14.93;;;14.20;99.90;;;;;;5083783;28;20484;-33
2023/10/09 03:09:30;;;;;;;32.35;15.35;;;14.20;99.90;;;;;;5072669;28;20052;-33
2023/10/09 03:12:11;;;;;;;31.60;13.77;;;14.30;99.90;;;;;;5073716;28;20051;-33
2023/10/09 03:14:38;;;;;;;33.67;16.02;;;14.30;99.90;;;;;;5056210;28;20571;-33
2023/10/09 03:17:05;;;;;;;32.28;15.32;;;14.30;99.90;;;;;;5077402;28;20059;-33
2023/10/09 03:19:37;;;;;;;35.30;15.30;;;14.40;99.90;;;;;;5075018;28;20123;-33
2023/10/09 03:22:04;;;;;;;32.58;16.10;;;14.40;99.90;;;;;;5085709;28;20155;-33
2023/10/09 03:24:33;;;;;;;32.20;15.35;;;14.50;99.90;;;;;;5061992;28;20522;-33
2023/10/09 03:26:59;;;;;;;35.97;16.35;;;14.50;99.90;;;;;;5059434;28;20489;-33
2023/10/09 03:29:27;;;;;;;34.25;16.98;;;14.50;99.90;;;;;;5067512;28;20049;-33
2023/10/09 03:31:55;;;;;;;36.10;17.80;;;14.60;99.90;;;;;;5064454;28;20052;-33
2023/10/09 03:34:21;;;;;;;33.72;15.30;;;14.60;99.90;;;;;;5055232;28;20118;-33
2023/10/09 03:36:51;;;;;;;39.05;15.73;;;14.60;99.90;;;;;;5061390;28;20056;-33
2023/10/09 03:39:59;;;;;;;35.15;16.02;;;14.60;99.90;;;;;;5061626;28;20408;-33
2023/10/09 03:42:05;;;;;;;29.52;14.73;;;14.70;99.90;;;;;;5050812;28;20132;-33
2023/10/09 03:44:40;;;;;;;31.23;15.18;;;14.70;99.90;;;;;;5064507;28;20143;-33
2023/10/09 03:47:09;;;;;;;29.45;14.77;;;14.80;99.90;;;;;;5060469;28;20052;-33
2023/10/09 03:49:38;;;;;;;34.10;15.27;;;14.80;99.90;;;;;;5060108;28;20550;-33
2023/10/09 03:52:06;;;;;;;29.08;14.55;;;14.90;99.90;;;;;;5058932;28;20062;-33
2023/10/09 03:54:34;;;;;;;29.45;13.82;;;14.90;99.90;;;;;;5063493;28;20048;-33
2023/10/09 03:57:01;;;;;;;28.13;13.73;;;15.00;99.90;;;;;;5044414;28;20055;-33
2023/10/09 03:59:30;;;;;;;31.52;13.95;;;15.00;99.90;;;;;;5063130;28;20457;-33
2023/10/09 04:01:58;;;;;;;30.40;15.13;;;15.00;99.90;;;;;;5063225;28;20501;-33
2023/10/09 04:04:24;;;;;;;28.30;13.85;;;15.00;99.90;;;;;;5060393;28;20141;-33
2023/10/09 04:06:53;;;;;;;29.80;13.80;;;15.00;99.90;;;;;;5062241;28;20068;-33
2023/10/09 04:12:12;;;;;;;28.10;13.68;;;15.10;99.90;;;;;;5061931;28;20132;-33
2023/10/09 04:14:54;;;;;;;24.27;12.63;;;15.10;99.90;;;;;;5075492;28;20063;-33
2023/10/09 04:17:33;;;;;;;;;;;15.10;99.90;;;;;;5060650;28;20406;-33
2023/10/09 04:22:59;;;;;;;28.20;14.18;;;15.10;99.90;;;;;;5066855;28;20421;-32
2023/10/09 04:25:26;;;;;;;24.73;12.95;;;15.20;99.90;;;;;;5082098;28;20048;-33
2023/10/09 04:27:57;;;;;;;25.17;13.02;;;15.20;99.90;;;;;;5084188;28;20047;-33
2023/10/09 04:30:23;;;;;;;28.73;12.70;;;15.20;99.90;;;;;;5085667;28;20481;-33
2023/10/09 04:32:49;;;;;;;24.98;11.48;;;15.30;99.90;;;;;;5090397;28;20626;-33
2023/10/09 04:35:24;;;;;;;28.33;12.30;;;15.30;99.90;;;;;;5089800;28;20165;-33
2023/10/09 04:38:00;;;;;;;24.48;12.02;;;15.30;99.90;;;;;;5089474;28;20058;-33
2023/10/09 04:40:48;;;;;;;26.50;12.32;;;15.40;99.90;;;;;;5089563;28;20068;-33
2023/10/09 04:43:20;;;;;;;23.70;11.02;;;15.40;99.90;;;;;;5089065;28;20066;-32
2023/10/09 04:46:07;;;;;;;23.13;12.10;;;15.40;99.90;;;;;;5086950;28;29815;-33
2023/10/09 04:48:33;;;;;;;20.50;10.93;;;15.50;99.90;;;;;;5073376;28;20135;-35
2023/10/09 04:56:32;;;;;;;17.27;9.65;;;15.50;99.90;;;;;;5084931;28;20486;-34
2023/10/09 04:59:05;;;;;;;20.90;10.18;;;15.50;99.90;;;;;;5091410;28;20504;-34
2023/10/09 05:01:43;;;;;;;17.13;9.45;;;15.50;99.90;;;;;;5085407;28;20040;-34
2023/10/09 05:04:27;;;;;;;18.30;8.27;;;15.60;99.90;;;;;;5089653;28;20048;-34
2023/10/09 05:06:55;;;;;;;19.02;9.75;;;15.60;99.90;;;;;;5084875;28;20125;-34
2023/10/09 05:09:22;;;;;;;21.67;9.43;;;15.70;99.90;;;;;;5089070;28;20098;-36
2023/10/09 05:14:17;;;;;;;18.90;8.50;;;15.70;99.90;;;;;;5088807;28;20470;-35
2023/10/09 05:16:55;;;;;;;18.30;8.30;;;15.70;99.90;;;;;;5086732;28;20056;-35
2023/10/09 05:22:16;;;;;;;18.83;6.68;;;15.80;99.90;;;;;;5085315;28;20481;-34
2023/10/09 05:24:45;;;;;;;17.85;7.15;;;15.80;99.90;;;;;;5072123;28;20147;-35
2023/10/09 05:27:24;;;;;;;18.77;7.70;;;15.80;99.90;;;;;;5089394;28;20063;-34
2023/10/09 05:30:35;;;;;;;19.27;7.65;;;15.80;99.90;;;;;;5089006;28;20064;-35
2023/10/09 05:32:48;;;;;;;18.33;6.63;;;15.90;99.90;;;;;;5074570;28;20071;-35
2023/10/09 05:35:19;;;;;;;15.25;7.07;;;15.90;99.90;;;;;;5086279;28;20493;-35
2023/10/09 05:37:45;;;;;;;13.60;7.43;;;15.90;99.90;;;;;;5089036;28;20048;-35
2023/10/09 05:48:04;;;;;;;16.98;6.38;;;16.00;99.90;;;;;;5077067;28;20421;-34
2023/10/09 06:03:54;;;;;;;11.45;5.72;;;16.10;99.90;;;;;;5079117;28;20048;-34
2023/10/09 06:11:49;;;;;;;11.43;5.83;;;16.10;99.90;;;;;;5071918;28;20078;-34
2023/10/09 06:14:25;;;;;;;11.75;5.70;;;16.10;99.90;;;;;;5082718;28;20377;-35
2023/10/09 06:19:43;;;;;;;24.90;5.70;;;16.10;99.90;;;;;;5075695;28;20060;-34
2023/10/09 06:34:07;;;;;;;16.05;4.90;;;16.10;99.90;;;;;;5060287;28;20048;-35
2023/10/09 06:35:39;;;;;;;12.32;4.47;;;16.10;99.90;;;;;;5045877;28;20044;-35
2023/10/09 06:38:22;;;;;;;11.75;4.32;;;16.10;99.90;;;;;;5058054;28;20514;-34
2023/10/09 06:43:26;;;;;;;13.55;4.30;;;16.10;99.90;;;;;;5057085;28;20386;-34
2023/10/09 06:46:43;;;;;;;9.82;4.57;;;16.10;99.90;;;;;;5058486;28;20051;-35
2023/10/09 06:48:59;;;;;;;11.93;4.15;;;16.20;99.90;;;;;;5061792;28;20627;-35
2023/10/09 06:59:16;;;;;;;15.00;5.28;;;16.30;99.90;;;;;;5059771;28;20131;-35
2023/10/09 07:01:46;;;;;;;11.77;4.25;;;16.30;99.90;;;;;;5064828;28;20505;-35
2023/10/09 07:04:19;;;;;;;10.95;4.32;;;16.30;99.90;;;;;;5057089;28;20052;-35
2023/10/09 07:06:48;;;;;;;;;;;16.30;99.90;;;;;;5054136;28;20243;-35
2023/10/09 07:17:43;;;;;;;8.60;3.88;;;16.40;99.90;;;;;;5063773;28;20048;-35
2023/10/09 07:22:56;;;;;;;9.15;4.05;;;16.40;99.90;;;;;;5064806;28;20048;-36
2023/10/09 07:25:40;;;;;;;12.10;4.63;;;16.40;99.90;;;;;;5059657;28;20056;-35
2023/10/09 07:28:36;;;;;;;12.77;4.35;;;16.40;99.90;;;;;;5064603;28;20056;-35
2023/10/09 07:30:57;;;;;;;12.38;4.15;;;16.50;99.90;;;;;;5053568;28;20185;-34
2023/10/09 07:33:34;;;;;;;10.60;4.10;;;16.50;99.90;;;;;;5060177;28;20486;-35
2023/10/09 07:36:12;;;;;;;10.73;3.90;;;16.50;99.90;;;;;;5059385;28;20134;-35
2023/10/09 07:38:38;;;;;;;14.32;4.07;;;16.60;99.90;;;;;;5050406;28;20048;-35
2023/10/09 07:49:21;;;;;;;14.27;4.32;;;16.60;99.90;;;;;;5053966;28;20057;-35
2023/10/09 07:51:46;;;;;;;13.20;4.40;;;16.60;99.90;;;;;;5061922;28;20128;-35
2023/10/09 07:54:15;;;;;;;11.45;5.93;;;16.60;99.90;;;;;;5059444;28;21001;-37
2023/10/09 07:56:45;;;;;;;12.90;6.93;;;16.60;99.90;;;;;;5058950;28;20052;-35
2023/10/09 07:59:11;;;;;;;12.48;5.80;;;16.60;99.90;;;;;;5056686;28;20476;-35
2023/10/09 08:01:52;;;;;;;10.77;5.10;;;16.60;99.90;;;;;;5057995;28;20044;-36
2023/10/09 08:04:37;;;;;;;13.23;5.00;;;16.60;99.90;;;;;;5054427;28;20075;-35
2023/10/09 08:07:07;;;;;;;14.85;4.90;;;16.70;99.90;;;;;;5057760;28;20451;-36
2023/10/09 08:09:48;;;;;;;12.10;4.43;;;16.70;99.90;;;;;;5062948;28;20072;-36
2023/10/09 08:18:13;;;;;;;10.05;4.22;;;16.80;99.90;;;;;;5069606;28;20462;-34
2023/10/09 08:21:19;;;;;;;9.25;3.85;;;16.90;99.90;;;;;;5067680;28;20080;-34
2023/10/09 08:23:49;;;;;;;8.20;3.97;;;16.90;99.90;;;;;;5059121;28;20061;-35
2023/10/09 08:26:28;;;;;;;14.25;4.88;;;16.90;99.90;;;;;;5055314;28;20056;-34
2023/10/09 08:29:15;;;;;;;9.88;4.43;;;17.00;99.90;;;;;;5051617;28;20052;-33
2023/10/09 08:31:46;;;;;;;8.35;3.90;;;17.00;99.90;;;;;;5055846;28;20056;-35
2023/10/09 08:34:26;;;;;;;9.35;3.83;;;17.10;99.90;;;;;;5049707;28;20513;-34
2023/10/09 08:36:54;;;;;;;11.70;5.22;;;17.10;99.90;;;;;;5056826;28;20135;-34
2023/10/09 08:39:26;;;;;;;11.52;4.22;;;17.10;99.90;;;;;;5057291;28;20083;-34
2023/10/09 08:41:53;;;;;;;11.25;4.15;;;17.20;99.90;;;;;;5056456;28;20558;-35
2023/10/09 08:44:25;;;;;;;11.95;4.00;;;17.20;99.90;;;;;;5058955;28;20486;-34
2023/10/09 08:46:51;;;;;;;12.10;4.85;;;17.10;99.90;;;;;;5049731;28;20060;-34
2023/10/09 08:49:18;;;;;;;9.20;4.32;;;17.10;99.90;;;;;;5060600;28;20053;-34
2023/10/09 08:51:46;;;;;;;10.93;4.45;;;17.10;99.90;;;;;;5059220;28;20166;-33
2023/10/09 08:54:14;;;;;;;11.38;4.88;;;17.20;99.90;;;;;;5057738;28;21918;-34
2023/10/09 08:56:49;;;;;;;8.48;3.70;;;17.20;99.90;;;;;;5051309;28;20139;-34
2023/10/09 08:59:18;;;;;;;11.95;4.80;;;17.20;99.90;;;;;;5055338;28;20475;-34
2023/10/09 09:01:51;;;;;;;16.92;5.55;;;17.20;99.90;;;;;;5056482;28;20062;-35
2023/10/09 09:04:38;;;;;;;11.93;4.43;;;17.20;99.90;;;;;;5065615;28;20044;-34
2023/10/09 09:07:23;;;;;;;10.88;4.30;;;17.30;99.90;;;;;;5056667;28;20048;-33
2023/10/09 09:10:46;;;;;;;12.80;4.25;;;17.20;99.90;;;;;;5049846;28;20562;-34
2023/10/09 09:12:45;;;;;;;12.55;4.10;;;17.20;99.90;;;;;;5053590;28;20044;-34
2023/10/09 09:15:22;;;;;;;10.73;3.72;;;17.20;99.90;;;;;;5057216;28;20059;-34
2023/10/09 09:17:52;;;;;;;12.27;4.35;;;17.10;99.90;;;;;;5058098;28;20045;-35
2023/10/09 09:20:28;;;;;;;11.20;3.78;;;17.10;99.90;;;;;;5073579;28;20189;-35
2023/10/09 09:22:57;;;;;;;10.73;4.05;;;17.20;99.90;;;;;;5067332;28;20085;-34
2023/10/09 09:25:25;;;;;;;15.93;4.20;;;17.20;99.90;;;;;;5070404;28;20071;-35
2023/10/09 09:27:55;;;;;;;13.43;4.38;;;17.20;99.90;;;;;;5062854;28;20086;-34
2023/10/09 09:30:35;;;;;;;9.10;4.20;;;17.20;99.90;;;;;;5078999;28;20060;-35
2023/10/09 09:33:43;;;;;;;12.05;3.92;;;17.20;99.90;;;;;;5079843;28;20408;-35
2023/10/09 09:36:11;;;;;;;10.02;4.03;;;17.30;99.90;;;;;;5094654;28;20056;-36
2023/10/09 09:38:51;;;;;;;11.70;4.68;;;17.30;99.90;;;;;;5058813;28;20048;-33
2023/10/09 09:41:26;;;;;;;11.07;3.90;;;17.30;99.90;;;;;;5067301;28;20046;-35
2023/10/09 09:43:57;;;;;;;14.75;3.75;;;17.40;99.90;;;;;;5044238;28;20048;-34
2023/10/09 09:46:33;;;;;;;9.38;3.30;;;17.40;99.90;;;;;;5072433;28;20048;-36
2023/10/09 09:49:01;;;;;;;10.77;3.13;;;17.30;99.90;;;;;;5061990;28;20057;-36
2023/10/09 09:51:29;;;;;;;9.52;3.85;;;17.40;99.90;;;;;;5068249;28;20047;-34
2023/10/09 09:53:55;;;;;;;10.75;3.22;;;17.30;99.90;;;;;;5059567;28;20376;-34
2023/10/09 09:56:24;;;;;;;10.32;3.38;;;17.40;99.90;;;;;;5060896;28;20044;-34
2023/10/09 09:58:56;;;;;;;9.43;3.50;;;17.30;99.90;;;;;;5080377;28;20166;-35
2023/10/09 10:01:29;;;;;;;12.95;3.97;;;17.30;99.90;;;;;;5062067;28;20067;-35
2023/10/09 10:04:01;;;;;;;10.10;3.65;;;17.30;99.90;;;;;;5067645;28;20055;-35
2023/10/09 10:06:29;;;;;;;12.52;4.13;;;17.30;99.90;;;;;;5070022;28;20052;-34
2023/10/09 10:08:55;;;;;;;8.55;3.72;;;17.30;99.90;;;;;;5072889;28;20084;-35
2023/10/09 10:11:46;;;;;;;11.93;3.80;;;17.40;99.90;;;;;;5080861;28;20155;-35
2023/10/09 10:14:31;;;;;;;12.48;3.80;;;17.40;99.90;;;;;;5079321;28;20051;-35
2023/10/09 10:17:16;;;;;;;12.25;3.67;;;17.30;99.90;;;;;;5087101;28;20124;-35
2023/10/09 10:19:59;;;;;;;10.80;2.83;;;17.40;99.90;;;;;;5083777;28;20048;-34
2023/10/09 10:22:27;;;;;;;7.93;3.20;;;17.40;99.90;;;;;;5077323;28;20048;-36
2023/10/09 10:24:54;;;;;;;11.20;3.60;;;17.40;99.90;;;;;;5059036;28;20521;-35
2023/10/09 10:27:31;;;;;;;15.05;3.10;;;17.50;99.90;;;;;;5067699;28;20041;-35
2023/10/09 10:30:18;;;;;;;11.13;3.05;;;17.60;99.90;;;;;;5055133;28;20056;-36
2023/10/09 10:38:34;;;;;;;11.70;2.97;;;17.80;99.90;;;;;;5066340;28;20048;-38
2023/10/09 10:41:11;;;;;;;8.98;2.50;;;17.80;99.90;;;;;;5059016;28;20054;-36
2023/10/09 10:46:38;;;;;;;8.18;2.63;;;17.80;99.90;;;;;;5066291;28;20063;-35
2023/10/09 10:49:15;;;;;;;9.82;3.33;;;17.90;99.90;;;;;;5063112;28;20502;-36
2023/10/09 10:51:47;;;;;;;10.70;3.15;;;18.00;99.90;;;;;;5051669;28;20056;-35
2023/10/09 10:56:57;;;;;;;9.48;3.03;;;18.00;99.90;;;;;;5056675;28;19916;-36
2023/10/09 10:59:25;;;;;;;11.57;2.75;;;18.00;99.90;;;;;;5060779;28;20049;-36
2023/10/09 11:07:06;;;;;;;6.63;3.03;;;18.00;99.90;;;;;;5067694;28;20060;-37
2023/10/09 11:15:46;;;;;;;8.75;2.75;;;18.10;99.90;;;;;;5063967;28;20482;-35
2023/10/09 11:18:27;;;;;;;10.95;3.58;;;18.20;99.90;;;;;;5059483;28;20122;-36
2023/10/09 11:23:36;;;;;;;9.63;3.30;;;18.20;99.90;;;;;;5069789;28;20150;-35
2023/10/09 11:26:21;;;;;;;8.25;2.85;;;18.20;99.90;;;;;;5076088;28;20502;-35
2023/10/09 11:29:13;;;;;;;9.32;2.90;;;18.20;99.90;;;;;;5080542;28;20571;-35
2023/10/09 11:31:39;;;;;;;15.00;3.50;;;18.10;99.90;;;;;;5084799;28;20086;-35
2023/10/09 11:34:28;;;;;;;10.07;3.45;;;18.10;99.90;;;;;;5076484;28;20048;-35
2023/10/09 11:36:55;;;;;;;9.10;3.10;;;18.10;99.90;;;;;;5054542;28;20048;-34
2023/10/09 11:39:37;;;;;;;10.57;3.70;;;18.00;99.90;;;;;;5079589;28;20059;-35
2023/10/09 11:42:07;;;;;;;9.43;3.45;;;18.00;99.90;;;;;;5079369;28;20498;-35
2023/10/09 11:44:44;;;;;;;8.93;3.30;;;18.00;99.90;;;;;;5085632;28;20052;-35
2023/10/09 11:50:05;;;;;;;9.10;4.00;;;18.40;99.90;;;;;;5089984;28;20044;-35
2023/10/09 11:52:36;;;;;;;7.88;2.95;;;18.60;99.90;;;;;;5069191;28;20082;-35
2023/10/09 11:55:06;;;;;;;11.25;3.28;;;18.60;99.90;;;;;;5064902;28;20048;-35
2023/10/09 11:57:36;;;;;;;7.68;2.97;;;18.70;99.90;;;;;;5064416;28;20051;-36
2023/10/09 12:02:49;;;;;;;7.93;2.85;;;19.20;99.90;;;;;;5066913;28;20052;-35
2023/10/09 12:05:16;;;;;;;8.95;3.50;;;19.40;99.90;;;;;;5057820;28;20094;-35
2023/10/09 12:07:46;;;;;;;10.77;3.13;;;19.50;99.90;;;;;;5074991;28;21624;-35
2023/10/09 12:10:13;;;;;;;6.93;2.75;;;19.90;99.90;;;;;;5073426;28;20065;-35
2023/10/09 12:12:40;;;;;;;9.27;2.78;;;20.00;99.90;;;;;;5060357;28;20098;-35
2023/10/09 12:15:07;;;;;;;9.13;2.80;;;20.00;99.90;;;;;;5073459;28;20493;-35
2023/10/09 12:17:32;;;;;;;8.68;2.63;;;20.00;99.90;;;;;;5050255;28;20049;-35
2023/10/09 12:19:58;;;;;;;8.55;2.75;;;20.10;99.90;;;;;;5075934;28;20048;-35
2023/10/09 12:22:27;;;;;;;8.52;2.50;;;20.10;99.90;;;;;;5059042;28;20094;-35
2023/10/09 12:24:52;;;;;;;7.63;2.40;;;20.00;99.90;;;;;;5063211;28;20055;-35
2023/10/09 12:27:20;;;;;;;8.90;2.08;;;19.70;99.90;;;;;;5062954;28;20430;-35
2023/10/09 12:29:46;;;;;;;7.60;2.17;;;19.70;99.90;;;;;;5044676;28;20052;-35
2023/10/09 12:32:11;;;;;;;11.23;2.30;;;19.60;99.90;;;;;;5056791;28;20105;-35
2023/10/09 12:34:38;;;;;;;7.70;1.90;;;19.60;99.90;;;;;;5051671;28;20413;-35
2023/10/09 12:37:04;;;;;;;5.22;1.92;;;19.60;99.90;;;;;;5054701;28;20045;-35
2023/10/09 12:39:33;;;;;;;8.02;2.45;;;19.60;99.90;;;;;;5058105;28;22038;-43
2023/10/09 12:42:11;;;;;;;7.63;2.53;;;19.40;99.90;;;;;;5060116;28;20570;-34
2023/10/09 12:44:40;;;;;;;6.10;1.90;;;19.30;99.90;;;;;;5055099;28;20072;-34
2023/10/09 12:47:12;;;;;;;7.18;2.42;;;19.30;99.90;;;;;;5060038;28;20060;-34
2023/10/09 12:49:40;;;;;;;8.35;2.08;;;19.30;99.90;;;;;;5038014;28;20135;-34
2023/10/09 12:52:15;;;;;;;6.85;2.00;;;19.20;99.90;;;;;;5039397;28;20142;-34
2023/10/09 12:54:42;;;;;;;8.85;2.08;;;19.20;99.90;;;;;;5060841;28;20721;-34
2023/10/09 12:57:13;;;;;;;10.73;1.98;;;19.20;99.90;;;;;;5057995;28;20049;-35
2023/10/09 12:59:44;;;;;;;6.53;2.10;;;19.10;99.90;;;;;;5062731;28;20045;-35
2023/10/09 13:02:12;;;;;;;9.77;2.07;;;19.10;99.90;;;;;;5044438;28;20047;-36
2023/10/09 13:04:41;;;;;;;5.40;2.08;;;19.10;99.90;;;;;;5061299;28;20127;-34
2023/10/09 13:07:07;;;;;;;6.65;2.35;;;19.10;99.90;;;;;;5067516;28;20368;-34
2023/10/09 13:09:42;;;;;;;8.80;2.38;;;19.20;99.90;;;;;;5062577;28;20111;-34
2023/10/09 13:12:09;;;;;;;7.50;2.17;;;19.20;99.90;;;;;;5062306;28;20049;-34
2023/10/09 13:14:35;;;;;;;9.30;3.00;;;19.20;99.90;;;;;;5063786;28;20048;-33
2023/10/09 13:17:08;;;;;;;7.05;2.00;;;19.10;99.90;;;;;;5068561;28;20056;-33
2023/10/09 13:19:34;;;;;;;9.25;2.60;;;19.00;99.90;;;;;;5063333;28;20190;-34
2023/10/09 13:22:03;;;;;;;7.72;2.30;;;18.90;99.90;;;;;;5065663;28;20139;-34
2023/10/09 13:24:30;;;;;;;10.65;2.33;;;18.90;99.90;;;;;;5065776;28;20048;-36
2023/10/09 13:26:58;;;;;;;5.82;2.38;;;18.80;99.90;;;;;;5064723;28;20056;-35
2023/10/09 13:29:24;;;;;;;7.63;2.55;;;18.80;99.90;;;;;;5061309;28;20055;-35
2023/10/09 13:31:57;;;;;;;8.77;2.70;;;18.80;99.90;;;;;;5064139;28;20051;-35
2023/10/09 13:34:27;;;;;;;11.73;2.80;;;18.90;99.90;;;;;;5069822;28;20500;-35
2023/10/09 13:36:55;;;;;;;6.38;1.90;;;18.90;99.90;;;;;;5063500;28;20052;-34
2023/10/09 13:39:24;;;;;;;6.05;1.70;;;18.90;99.90;;;;;;5080442;28;20045;-35
2023/10/09 13:41:57;;;;;;;7.22;1.85;;;18.80;99.90;;;;;;5058383;28;20088;-34
2023/10/09 13:44:29;;;;;;;4.00;1.13;;;18.80;99.90;;;;;;5060594;28;20466;-36
2023/10/09 13:47:09;;;;;;;5.43;1.33;;;18.70;99.90;;;;;;5060241;28;20626;-36
2023/10/09 13:49:37;;;;;;;4.10;1.60;;;18.60;99.90;;;;;;5068918;28;20044;-34
2023/10/09 13:52:03;;;;;;;4.80;1.35;;;18.50;99.90;;;;;;5051868;28;20052;-35
2023/10/09 13:57:04;;;;;;;5.20;1.50;;;18.40;99.90;;;;;;5064500;28;22458;-34
2023/10/09 13:59:30;;;;;;;4.97;1.35;;;18.40;99.90;;;;;;5057778;28;20044;-34
2023/10/09 14:01:56;;;;;;;4.50;1.65;;;18.40;99.90;;;;;;5060543;28;20517;-34
2023/10/09 14:04:26;;;;;;;6.50;1.80;;;18.40;99.90;;;;;;5042919;28;20057;-35
2023/10/09 14:06:59;;;;;;;7.53;1.92;;;18.40;99.90;;;;;;5061575;28;20062;-34
2023/10/09 14:09:37;;;;;;;5.80;1.90;;;18.40;99.90;;;;;;5063855;28;20053;-34
2023/10/09 14:12:11;;;;;;;5.50;1.63;;;18.50;99.90;;;;;;5061869;28;20061;-34
2023/10/09 14:14:47;;;;;;;5.00;1.88;;;18.40;99.90;;;;;;5064321;28;20057;-34
2023/10/09 14:17:19;;;;;;;5.00;1.75;;;18.40;99.90;;;;;;5057718;28;20460;-34
2023/10/09 14:19:47;;;;;;;6.38;1.70;;;18.40;99.90;;;;;;5050408;28;20056;-32
2023/10/09 14:22:17;;;;;;;8.10;2.40;;;18.30;99.90;;;;;;5059156;28;20486;-33
2023/10/09 14:24:46;;;;;;;10.13;2.20;;;18.30;99.90;;;;;;5066674;28;20118;-34
2023/10/09 14:27:18;;;;;;;6.25;2.00;;;18.30;99.90;;;;;;5065352;28;20060;-34
2023/10/09 14:29:45;;;;;;;9.88;3.20;;;18.30;99.90;;;;;;5065078;28;20435;-34
2023/10/09 14:32:14;;;;;;;9.35;2.67;;;18.30;99.90;;;;;;5066628;28;20052;-34
2023/10/09 14:34:49;;;;;;;13.88;4.25;;;18.30;99.90;;;;;;5061848;28;20560;-34
2023/10/09 14:37:16;;;;;;;8.68;3.28;;;18.30;99.90;;;;;;5062593;28;20063;-34
2023/10/09 14:39:42;;;;;;;7.72;2.92;;;18.30;99.90;;;;;;5063451;28;20049;-34
2023/10/09 14:42:11;;;;;;;12.38;3.97;;;18.20;99.90;;;;;;5064361;28;20409;-35
2023/10/09 14:44:38;;;;;;;10.63;3.15;;;18.20;99.90;;;;;;5064149;28;20557;-35
2023/10/09 14:47:05;;;;;;;9.93;3.58;;;18.20;99.90;;;;;;5042342;28;20486;-34
2023/10/09 14:49:36;;;;;;;12.68;3.67;;;18.10;99.90;;;;;;5069781;28;20057;-36
2023/10/09 14:52:03;;;;;;;7.70;3.53;;;18.10;99.90;;;;;;5070319;28;20572;-36
2023/10/09 14:54:29;;;;;;;11.30;3.97;;;18.10;99.90;;;;;;5071238;28;20559;-36
2023/10/09 14:56:55;;;;;;;11.98;3.33;;;18.10;99.90;;;;;;5065755;28;20079;-36
2023/10/09 14:59:22;;;;;;;11.30;3.22;;;18.10;99.90;;;;;;5070002;28;20049;-36
2023/10/09 15:01:53;;;;;;;13.15;3.75;;;18.20;99.90;;;;;;5069830;28;20048;-34
2023/10/09 15:04:19;;;;;;;7.53;3.07;;;18.20;99.90;;;;;;5059631;28;21293;-34
2023/10/09 15:06:49;;;;;;;13.13;3.95;;;18.20;99.90;;;;;;5058124;28;20080;-34
2023/10/09 15:09:22;;;;;;;9.77;3.50;;;18.10;99.90;;;;;;5057849;28;20130;-36
2023/10/09 15:11:49;;;;;;;10.70;3.60;;;18.10;99.90;;;;;;5056585;28;20052;-34
2023/10/09 15:14:21;;;;;;;12.00;3.42;;;18.10;99.90;;;;;;5057189;28;20048;-36
2023/10/09 15:16:47;;;;;;;12.15;3.47;;;18.10;99.90;;;;;;5051193;28;20510;-33
2023/10/09 15:19:13;;;;;;;8.70;3.63;;;18.10;99.90;;;;;;5048525;28;20044;-34
2023/10/09 15:21:46;;;;;;;8.25;3.28;;;18.10;99.90;;;;;;5059895;28;20070;-35
2023/10/09 15:24:15;;;;;;;8.43;3.05;;;18.00;99.90;;;;;;5067482;28;20143;-35
2023/10/09 15:26:49;;;;;;;9.40;2.75;;;18.00;99.90;;;;;;5068355;28;20541;-35
2023/10/09 15:29:16;;;;;;;6.38;2.78;;;17.90;99.90;;;;;;5053023;28;20090;-34
2023/10/09 15:31:41;;;;;;;12.23;3.85;;;17.90;99.90;;;;;;5059707;28;20044;-34
2023/10/09 15:34:08;;;;;;;9.23;3.00;;;17.90;99.90;;;;;;5069143;28;20494;-34
2023/10/09 15:36:35;;;;;;;11.48;3.05;;;17.90;99.90;;;;;;5074039;28;20498;-35
2023/10/09 15:39:01;;;;;;;10.07;3.10;;;17.90;99.90;;;;;;5066403;28;20053;-33